sensor_id;sensor_type;location;lat;lon;timestamp;pressure;altitude;pressure_sealevel;temperature;humidity
10466;BME280;5280;42.600;23.556;2023-07-13T00:00:46;93674.47;;;23.27;59.41
10466;BME280;5280;42.600;23.556;2023-07-13T00:03:13;93628.13;;;23.02;59.21
10466;BME280;5280;42.600;23.556;2023-07-13T00:05:40;93697.03;;;23.41;58.47
10466;BME280;5280;42.600;23.556;2023-07-13T00:08:07;93691.00;;;23.39;56.55
10466;BME280;5280;42.600;23.556;2023-07-13T00:10:39;93688.59;;;23.29;58.02
10466;BME280;5280;42.600;23.556;2023-07-13T00:13:08;93696.56;;;23.37;56.45
10466;BME280;5280;42.600;23.556;2023-07-13T00:15:36;93677.47;;;23.17;57.00
10466;BME280;5280;42.600;23.556;2023-07-13T00:18:03;93687.75;;;23.29;55.20
10466;BME280;5280;42.600;23.556;2023-07-13T00:20:30;93688.44;;;23.31;56.04
10466;BME280;5280;42.600;23.556;2023-07-13T00:22:57;93629.66;;;22.90;55.55
10466;BME280;5280;42.600;23.556;2023-07-13T00:25:24;93689.00;;;23.26;58.07
10466;BME280;5280;42.600;23.556;2023-07-13T00:27:53;93674.16;;;23.15;59.44
10466;BME280;5280;42.600;23.556;2023-07-13T00:30:22;93681.09;;;23.25;58.41
10466;BME280;5280;42.600;23.556;2023-07-13T00:32:49;93640.59;;;23.03;57.23
10466;BME280;5280;42.600;23.556;2023-07-13T00:35:16;93574.31;;;22.58;58.69
10466;BME280;5280;42.600;23.556;2023-07-13T00:37:44;93649.78;;;23.09;58.49
10466;BME280;5280;42.600;23.556;2023-07-13T00:40:15;93652.66;;;23.07;58.55
10466;BME280;5280;42.600;23.556;2023-07-13T00:42:42;93645.16;;;23.03;59.24
10466;BME280;5280;42.600;23.556;2023-07-13T00:48:10;93568.03;;;22.51;57.06
10466;BME280;5280;42.600;23.556;2023-07-13T00:50:38;93619.81;;;22.83;55.81
10466;BME280;5280;42.600;23.556;2023-07-13T00:53:06;93651.69;;;22.94;55.39
10466;BME280;5280;42.600;23.556;2023-07-13T00:55:35;93658.31;;;22.91;56.70
10466;BME280;5280;42.600;23.556;2023-07-13T00:58:02;93648.44;;;22.84;57.26
10466;BME280;5280;42.600;23.556;2023-07-13T01:00:30;93597.19;;;22.48;59.05
10466;BME280;5280;42.600;23.556;2023-07-13T01:02:57;93670.09;;;22.90;59.03
10466;BME280;5280;42.600;23.556;2023-07-13T01:05:25;93583.66;;;22.26;57.49
10466;BME280;5280;42.600;23.556;2023-07-13T01:07:52;93675.59;;;22.82;59.45
10466;BME280;5280;42.600;23.556;2023-07-13T01:10:22;93665.19;;;22.79;58.40
10466;BME280;5280;42.600;23.556;2023-07-13T01:12:50;93648.09;;;22.72;57.02
10466;BME280;5280;42.600;23.556;2023-07-13T01:15:35;93652.47;;;22.73;57.76
10466;BME280;5280;42.600;23.556;2023-07-13T01:18:06;93658.69;;;22.73;56.75
10466;BME280;5280;42.600;23.556;2023-07-13T01:20:38;93565.63;;;22.12;55.85
10466;BME280;5280;42.600;23.556;2023-07-13T01:23:08;93594.16;;;22.36;57.49
10466;BME280;5280;42.600;23.556;2023-07-13T01:25:39;93554.31;;;22.02;58.41
10466;BME280;5280;42.600;23.556;2023-07-13T01:28:07;93652.16;;;22.68;58.09
10466;BME280;5280;42.600;23.556;2023-07-13T01:30:35;93654.41;;;22.64;59.71
10466;BME280;5280;42.600;23.556;2023-07-13T01:33:03;93649.56;;;22.60;60.26
10466;BME280;5280;42.600;23.556;2023-07-13T01:35:30;93606.00;;;22.27;61.02
10466;BME280;5280;42.600;23.556;2023-07-13T01:37:57;93648.63;;;22.53;60.90
10466;BME280;5280;42.600;23.556;2023-07-13T01:40:27;93568.81;;;22.01;58.77
10466;BME280;5280;42.600;23.556;2023-07-13T01:42:54;93665.81;;;22.52;58.78
10466;BME280;5280;42.600;23.556;2023-07-13T01:45:23;93655.81;;;22.46;57.60
10466;BME280;5280;42.600;23.556;2023-07-13T01:47:50;93599.91;;;22.04;57.81
10466;BME280;5280;42.600;23.556;2023-07-13T01:50:17;93638.31;;;22.27;59.73
10466;BME280;5280;42.600;23.556;2023-07-13T01:52:43;93636.19;;;22.22;60.75
10466;BME280;5280;42.600;23.556;2023-07-13T01:55:10;93648.28;;;22.26;61.35
10466;BME280;5280;42.600;23.556;2023-07-13T01:57:38;93644.19;;;22.30;58.99
10466;BME280;5280;42.600;23.556;2023-07-13T02:00:06;93611.13;;;22.07;59.83
10466;BME280;5280;42.600;23.556;2023-07-13T02:02:34;93602.75;;;22.02;61.73
10466;BME280;5280;42.600;23.556;2023-07-13T02:05:00;93655.81;;;22.31;62.54
10466;BME280;5280;42.600;23.556;2023-07-13T02:07:27;93657.38;;;22.25;63.42
10466;BME280;5280;42.600;23.556;2023-07-13T02:09:54;93604.56;;;21.87;63.88
10466;BME280;5280;42.600;23.556;2023-07-13T02:12:21;93669.84;;;22.26;62.99
10466;BME280;5280;42.600;23.556;2023-07-13T02:14:49;93653.00;;;22.24;62.11
10466;BME280;5280;42.600;23.556;2023-07-13T02:17:16;93586.50;;;21.81;61.94
10466;BME280;5280;42.600;23.556;2023-07-13T02:19:42;93666.03;;;22.21;61.50
10466;BME280;5280;42.600;23.556;2023-07-13T02:22:09;93662.84;;;22.17;62.37
10466;BME280;5280;42.600;23.556;2023-07-13T02:24:36;93669.63;;;22.13;62.57
10466;BME280;5280;42.600;23.556;2023-07-13T02:27:04;93671.75;;;22.18;63.88
10466;BME280;5280;42.600;23.556;2023-07-13T02:29:31;93657.94;;;22.06;64.76
10466;BME280;5280;42.600;23.556;2023-07-13T02:31:59;93616.34;;;21.71;65.20
10466;BME280;5280;42.600;23.556;2023-07-13T02:34:26;93617.84;;;21.74;64.65
10466;BME280;5280;42.600;23.556;2023-07-13T02:36:53;93674.53;;;22.10;63.15
10466;BME280;5280;42.600;23.556;2023-07-13T02:39:20;93674.72;;;22.08;62.75
10466;BME280;5280;42.600;23.556;2023-07-13T02:41:46;93650.16;;;21.88;64.12
10466;BME280;5280;42.600;23.556;2023-07-13T02:44:13;93680.47;;;22.05;64.37
10466;BME280;5280;42.600;23.556;2023-07-13T02:46:41;93639.34;;;21.74;65.62
10466;BME280;5280;42.600;23.556;2023-07-13T02:49:09;93671.75;;;22.03;63.87
10466;BME280;5280;42.600;23.556;2023-07-13T02:51:36;93692.25;;;22.04;64.56
10466;BME280;5280;42.600;23.556;2023-07-13T02:54:04;93687.03;;;22.03;65.60
10466;BME280;5280;42.600;23.556;2023-07-13T02:58:58;93676.50;;;21.93;66.13
10466;BME280;5280;42.600;23.556;2023-07-13T03:01:25;93683.22;;;21.97;62.32
10466;BME280;5280;42.600;23.556;2023-07-13T03:03:52;93666.75;;;21.92;63.69
10466;BME280;5280;42.600;23.556;2023-07-13T03:06:20;93661.63;;;21.82;65.26
10466;BME280;5280;42.600;23.556;2023-07-13T03:08:48;93671.69;;;21.88;65.76
10466;BME280;5280;42.600;23.556;2023-07-13T03:11:17;93675.66;;;21.92;65.42
10466;BME280;5280;42.600;23.556;2023-07-13T03:13:45;93679.75;;;21.88;65.37
10466;BME280;5280;42.600;23.556;2023-07-13T03:16:12;93677.06;;;21.88;64.97
10466;BME280;5280;42.600;23.556;2023-07-13T03:18:41;93662.00;;;21.79;66.01
10466;BME280;5280;42.600;23.556;2023-07-13T03:21:08;93671.84;;;21.87;65.66
10466;BME280;5280;42.600;23.556;2023-07-13T03:23:37;93659.41;;;21.71;65.94
10466;BME280;5280;42.600;23.556;2023-07-13T03:26:06;93667.41;;;21.79;67.43
10466;BME280;5280;42.600;23.556;2023-07-13T03:28:33;93647.22;;;21.61;69.06
10466;BME280;5280;42.600;23.556;2023-07-13T03:31:01;93675.28;;;21.81;67.48
10466;BME280;5280;42.600;23.556;2023-07-13T03:33:28;93641.53;;;21.56;67.83
10466;BME280;5280;42.600;23.556;2023-07-13T03:35:55;93674.91;;;21.84;69.99
10466;BME280;5280;42.600;23.556;2023-07-13T03:38:22;93684.50;;;21.86;68.86
10466;BME280;5280;42.600;23.556;2023-07-13T03:40:51;93623.06;;;21.53;69.54
10466;BME280;5280;42.600;23.556;2023-07-13T03:43:20;93666.69;;;21.85;69.98
10466;BME280;5280;42.600;23.556;2023-07-13T03:45:47;93658.94;;;21.82;71.32
10466;BME280;5280;42.600;23.556;2023-07-13T03:48:14;93666.44;;;21.95;71.38
10466;BME280;5280;42.600;23.556;2023-07-13T03:50:41;93661.38;;;21.92;72.72
10466;BME280;5280;42.600;23.556;2023-07-13T03:53:08;93616.66;;;21.54;74.45
10466;BME280;5280;42.600;23.556;2023-07-13T03:55:35;93677.03;;;21.97;74.67
10466;BME280;5280;42.600;23.556;2023-07-13T03:58:26;93674.81;;;22.00;75.75
10466;BME280;5280;42.600;23.556;2023-07-13T04:00:53;93679.25;;;22.08;75.55
10466;BME280;5280;42.600;23.556;2023-07-13T04:03:20;93686.16;;;22.10;75.61
10466;BME280;5280;42.600;23.556;2023-07-13T04:05:47;93664.03;;;22.00;76.71
10466;BME280;5280;42.600;23.556;2023-07-13T04:08:14;93680.97;;;22.23;76.88
10466;BME280;5280;42.600;23.556;2023-07-13T04:10:42;93693.69;;;22.29;77.21
10466;BME280;5280;42.600;23.556;2023-07-13T04:13:12;93644.00;;;22.17;77.88
10466;BME280;5280;42.600;23.556;2023-07-13T04:15:41;93629.34;;;22.05;78.67
10466;BME280;5280;42.600;23.556;2023-07-13T04:18:08;93680.06;;;22.46;78.66
10466;BME280;5280;42.600;23.556;2023-07-13T04:20:38;93676.69;;;22.58;78.53
10466;BME280;5280;42.600;23.556;2023-07-13T04:23:05;93691.88;;;22.74;77.74
10466;BME280;5280;42.600;23.556;2023-07-13T04:25:32;93690.09;;;22.81;78.07
10466;BME280;5280;42.600;23.556;2023-07-13T04:27:59;93604.16;;;22.42;78.39
10466;BME280;5280;42.600;23.556;2023-07-13T04:30:26;93657.38;;;22.84;77.72
10466;BME280;5280;42.600;23.556;2023-07-13T04:32:55;93630.34;;;22.78;77.40
10466;BME280;5280;42.600;23.556;2023-07-13T04:35:22;93619.75;;;22.76;77.36
10466;BME280;5280;42.600;23.556;2023-07-13T04:37:52;93685.25;;;23.27;72.65
10466;BME280;5280;42.600;23.556;2023-07-13T04:40:19;93675.66;;;23.39;71.91
10466;BME280;5280;42.600;23.556;2023-07-13T04:42:46;93689.94;;;23.54;72.64
10466;BME280;5280;42.600;23.556;2023-07-13T04:45:14;93680.03;;;23.62;71.43
10466;BME280;5280;42.600;23.556;2023-07-13T04:47:41;93689.50;;;23.72;70.20
10466;BME280;5280;42.600;23.556;2023-07-13T04:50:10;93675.72;;;23.67;70.77
10466;BME280;5280;42.600;23.556;2023-07-13T04:52:37;93695.88;;;23.86;70.50
10466;BME280;5280;42.600;23.556;2023-07-13T04:55:04;93688.47;;;23.94;71.20
10466;BME280;5280;42.600;23.556;2023-07-13T04:57:31;93716.16;;;24.03;71.60
10466;BME280;5280;42.600;23.556;2023-07-13T04:59:59;93708.72;;;24.05;71.37
10466;BME280;5280;42.600;23.556;2023-07-13T05:02:26;93707.66;;;24.06;71.30
10466;BME280;5280;42.600;23.556;2023-07-13T05:04:53;93714.31;;;24.25;70.95
10466;BME280;5280;42.600;23.556;2023-07-13T05:07:21;93715.81;;;24.34;69.65
10466;BME280;5280;42.600;23.556;2023-07-13T05:09:48;93712.53;;;24.38;69.94
10466;BME280;5280;42.600;23.556;2023-07-13T05:12:15;93684.53;;;24.18;68.86
10466;BME280;5280;42.600;23.556;2023-07-13T05:14:42;93724.50;;;24.57;69.69
10466;BME280;5280;42.600;23.556;2023-07-13T05:17:08;93689.34;;;24.51;70.03
10466;BME280;5280;42.600;23.556;2023-07-13T05:19:35;93720.28;;;24.82;70.12
10466;BME280;5280;42.600;23.556;2023-07-13T05:22:02;93711.66;;;24.94;69.06
10466;BME280;5280;42.600;23.556;2023-07-13T05:24:30;93706.66;;;24.91;69.43
10466;BME280;5280;42.600;23.556;2023-07-13T05:26:58;93647.25;;;24.69;68.57
10466;BME280;5280;42.600;23.556;2023-07-13T05:29:24;93727.63;;;25.23;68.98
10466;BME280;5280;42.600;23.556;2023-07-13T05:31:51;93709.75;;;25.28;68.53
10466;BME280;5280;42.600;23.556;2023-07-13T05:34:18;93718.13;;;25.47;68.31
10466;BME280;5280;42.600;23.556;2023-07-13T05:36:45;93718.59;;;25.57;69.12
10466;BME280;5280;42.600;23.556;2023-07-13T05:39:12;93729.50;;;25.70;68.51
10466;BME280;5280;42.600;23.556;2023-07-13T05:41:40;93727.81;;;25.76;67.94
10466;BME280;5280;42.600;23.556;2023-07-13T05:44:07;93725.13;;;25.82;68.23
10466;BME280;5280;42.600;23.556;2023-07-13T05:46:34;93701.59;;;25.83;67.84
10466;BME280;5280;42.600;23.556;2023-07-13T05:49:01;93716.41;;;26.00;68.20
10466;BME280;5280;42.600;23.556;2023-07-13T05:51:28;93642.84;;;25.70;67.03
10466;BME280;5280;42.600;23.556;2023-07-13T05:53:55;93746.69;;;26.36;66.84
10466;BME280;5280;42.600;23.556;2023-07-13T05:56:22;93721.25;;;26.44;64.85
10466;BME280;5280;42.600;23.556;2023-07-13T05:58:52;93731.06;;;26.58;67.24
10466;BME280;5280;42.600;23.556;2023-07-13T06:01:19;93725.00;;;26.63;66.82
10466;BME280;5280;42.600;23.556;2023-07-13T06:03:47;93729.16;;;26.85;67.04
10466;BME280;5280;42.600;23.556;2023-07-13T06:06:15;93724.13;;;26.82;66.58
10466;BME280;5280;42.600;23.556;2023-07-13T06:08:42;93724.16;;;26.88;64.27
10466;BME280;5280;42.600;23.556;2023-07-13T06:11:12;93741.44;;;27.07;64.57
10466;BME280;5280;42.600;23.556;2023-07-13T06:13:41;93743.88;;;27.22;63.71
10466;BME280;5280;42.600;23.556;2023-07-13T06:16:09;93698.25;;;26.99;62.97
10466;BME280;5280;42.600;23.556;2023-07-13T06:18:37;93710.88;;;27.31;62.31
10466;BME280;5280;42.600;23.556;2023-07-13T06:21:08;93726.03;;;27.59;58.56
10466;BME280;5280;42.600;23.556;2023-07-13T06:23:35;93742.25;;;27.72;54.61
10466;BME280;5280;42.600;23.556;2023-07-13T06:26:05;93735.94;;;27.85;53.66
10466;BME280;5280;42.600;23.556;2023-07-13T06:28:33;93728.34;;;27.93;53.53
10466;BME280;5280;42.600;23.556;2023-07-13T06:31:00;93675.81;;;27.74;51.60
10466;BME280;5280;42.600;23.556;2023-07-13T06:33:29;93716.72;;;28.11;50.76
10466;BME280;5280;42.600;23.556;2023-07-13T06:35:56;93712.72;;;28.20;52.90
10466;BME280;5280;42.600;23.556;2023-07-13T06:38:22;93725.81;;;28.30;53.22
10466;BME280;5280;42.600;23.556;2023-07-13T06:40:49;93737.50;;;28.37;54.27
10466;BME280;5280;42.600;23.556;2023-07-13T06:43:16;93660.97;;;28.02;51.12
10466;BME280;5280;42.600;23.556;2023-07-13T06:45:44;93677.66;;;28.05;48.59
10466;BME280;5280;42.600;23.556;2023-07-13T06:48:13;93731.50;;;28.53;45.81
10466;BME280;5280;42.600;23.556;2023-07-13T06:50:41;93739.66;;;28.53;48.23
10466;BME280;5280;42.600;23.556;2023-07-13T06:53:08;93735.63;;;28.62;47.05
10466;BME280;5280;42.600;23.556;2023-07-13T06:55:35;93703.69;;;28.51;46.83
10466;BME280;5280;42.600;23.556;2023-07-13T06:58:02;93707.78;;;28.60;46.70
10466;BME280;5280;42.600;23.556;2023-07-13T07:00:29;93717.94;;;28.71;47.16
10466;BME280;5280;42.600;23.556;2023-07-13T07:02:56;93730.97;;;28.94;46.15
10466;BME280;5280;42.600;23.556;2023-07-13T07:05:23;93733.44;;;28.95;46.80
10466;BME280;5280;42.600;23.556;2023-07-13T07:07:53;93673.06;;;28.62;46.01
10466;BME280;5280;42.600;23.556;2023-07-13T07:10:21;93735.44;;;29.06;46.42
10466;BME280;5280;42.600;23.556;2023-07-13T07:12:48;93733.69;;;29.12;47.78
10466;BME280;5280;42.600;23.556;2023-07-13T07:15:16;93732.19;;;29.16;45.87
10466;BME280;5280;42.600;23.556;2023-07-13T07:17:43;93740.66;;;29.26;44.30
10466;BME280;5280;42.600;23.556;2023-07-13T07:20:11;93734.84;;;29.23;44.82
10466;BME280;5280;42.600;23.556;2023-07-13T07:22:38;93723.69;;;29.31;43.16
10466;BME280;5280;42.600;23.556;2023-07-13T07:25:07;93698.47;;;29.17;44.52
10466;BME280;5280;42.600;23.556;2023-07-13T07:27:34;93741.09;;;29.48;43.56
10466;BME280;5280;42.600;23.556;2023-07-13T07:30:01;93747.72;;;29.52;43.50
10466;BME280;5280;42.600;23.556;2023-07-13T07:32:30;93712.88;;;29.42;44.23
10466;BME280;5280;42.600;23.556;2023-07-13T07:34:57;93741.28;;;29.65;45.37
10466;BME280;5280;42.600;23.556;2023-07-13T07:37:24;93723.34;;;29.75;44.24
10466;BME280;5280;42.600;23.556;2023-07-13T07:39:51;93701.16;;;29.72;44.07
10466;BME280;5280;42.600;23.556;2023-07-13T07:42:20;93729.28;;;30.02;44.16
10466;BME280;5280;42.600;23.556;2023-07-13T07:44:47;93734.66;;;30.09;43.99
10466;BME280;5280;42.600;23.556;2023-07-13T07:47:14;93720.34;;;30.13;44.10
10466;BME280;5280;42.600;23.556;2023-07-13T07:49:41;93727.56;;;30.19;43.36
10466;BME280;5280;42.600;23.556;2023-07-13T07:52:08;93720.59;;;30.23;43.43
10466;BME280;5280;42.600;23.556;2023-07-13T07:54:35;93694.25;;;30.17;42.33
10466;BME280;5280;42.600;23.556;2023-07-13T07:57:02;93714.31;;;30.34;43.57
10466;BME280;5280;42.600;23.556;2023-07-13T07:59:33;93638.84;;;29.93;44.71
10466;BME280;5280;42.600;23.556;2023-07-13T08:02:00;93709.66;;;30.53;45.18
10466;BME280;5280;42.600;23.556;2023-07-13T08:04:28;93698.75;;;30.53;43.11
10466;BME280;5280;42.600;23.556;2023-07-13T08:06:55;93684.50;;;30.51;42.57
10466;BME280;5280;42.600;23.556;2023-07-13T08:09:22;93706.47;;;30.79;44.26
10466;BME280;5280;42.600;23.556;2023-07-13T08:11:49;93700.53;;;30.94;42.40
10466;BME280;5280;42.600;23.556;2023-07-13T08:14:17;93685.47;;;30.80;43.97
10466;BME280;5280;42.600;23.556;2023-07-13T08:16:45;93698.44;;;31.08;42.16
10466;BME280;5280;42.600;23.556;2023-07-13T08:19:12;93695.56;;;31.14;41.88
10466;BME280;5280;42.600;23.556;2023-07-13T08:21:39;93670.75;;;31.16;41.98
10466;BME280;5280;42.600;23.556;2023-07-13T08:24:07;93680.94;;;31.32;41.57
10466;BME280;5280;42.600;23.556;2023-07-13T08:26:34;93681.16;;;31.42;41.21
10466;BME280;5280;42.600;23.556;2023-07-13T08:29:01;93682.72;;;31.38;41.07
10466;BME280;5280;42.600;23.556;2023-07-13T08:31:28;93676.25;;;31.56;43.20
10466;BME280;5280;42.600;23.556;2023-07-13T08:33:57;93678.94;;;31.79;42.05
10466;BME280;5280;42.600;23.556;2023-07-13T08:36:25;93659.31;;;31.82;41.55
10466;BME280;5280;42.600;23.556;2023-07-13T08:38:54;93668.16;;;32.01;40.51
10466;BME280;5280;42.600;23.556;2023-07-13T08:41:21;93665.38;;;32.13;38.97
10466;BME280;5280;42.600;23.556;2023-07-13T08:43:51;93679.16;;;32.18;38.35
10466;BME280;5280;42.600;23.556;2023-07-13T08:46:21;93683.56;;;32.35;37.76
10466;BME280;5280;42.600;23.556;2023-07-13T08:48:52;93662.09;;;32.44;38.31
10466;BME280;5280;42.600;23.556;2023-07-13T08:51:33;93660.44;;;32.60;38.60
10466;BME280;5280;42.600;23.556;2023-07-13T08:54:03;93654.78;;;32.50;36.53
10466;BME280;5280;42.600;23.556;2023-07-13T08:56:32;93664.28;;;32.75;39.57
10466;BME280;5280;42.600;23.556;2023-07-13T08:59:02;93591.75;;;32.44;39.22
10466;BME280;5280;42.600;23.556;2023-07-13T09:01:54;93637.06;;;32.85;38.18
10466;BME280;5280;42.600;23.556;2023-07-13T09:04:28;93642.38;;;32.92;37.43
10466;BME280;5280;42.600;23.556;2023-07-13T09:07:07;93669.06;;;33.18;38.57
10466;BME280;5280;42.600;23.556;2023-07-13T09:09:48;93680.81;;;33.36;38.06
10466;BME280;5280;42.600;23.556;2023-07-13T09:12:24;93675.50;;;33.29;37.61
10466;BME280;5280;42.600;23.556;2023-07-13T09:14:55;93686.13;;;33.42;37.39
10466;BME280;5280;42.600;23.556;2023-07-13T09:17:27;93692.53;;;33.53;37.51
10466;BME280;5280;42.600;23.556;2023-07-13T09:19:58;93696.69;;;33.72;37.69
10466;BME280;5280;42.600;23.556;2023-07-13T09:22:32;93700.50;;;33.71;38.66
10466;BME280;5280;42.600;23.556;2023-07-13T09:25:04;93708.56;;;33.61;38.36
10466;BME280;5280;42.600;23.556;2023-07-13T09:27:36;93709.47;;;33.88;37.86
10466;BME280;5280;42.600;23.556;2023-07-13T09:30:21;93708.78;;;33.76;37.01
10466;BME280;5280;42.600;23.556;2023-07-13T09:32:52;93708.09;;;33.86;37.19
10466;BME280;5280;42.600;23.556;2023-07-13T09:35:22;93707.25;;;33.85;37.69
10466;BME280;5280;42.600;23.556;2023-07-13T09:37:57;93684.16;;;33.81;36.93
10466;BME280;5280;42.600;23.556;2023-07-13T09:40:36;93700.81;;;33.96;36.62
10466;BME280;5280;42.600;23.556;2023-07-13T09:43:08;93656.63;;;33.71;36.28
10466;BME280;5280;42.600;23.556;2023-07-13T09:45:38;93709.72;;;34.08;37.15
10466;BME280;5280;42.600;23.556;2023-07-13T09:48:06;93702.06;;;34.10;38.05
10466;BME280;5280;42.600;23.556;2023-07-13T09:50:34;93704.03;;;34.15;37.15
10466;BME280;5280;42.600;23.556;2023-07-13T09:53:03;93705.50;;;34.23;38.83
10466;BME280;5280;42.600;23.556;2023-07-13T09:55:32;93651.78;;;34.05;39.30
10466;BME280;5280;42.600;23.556;2023-07-13T09:58:04;93653.56;;;34.16;37.73
10466;BME280;5280;42.600;23.556;2023-07-13T10:00:31;93692.03;;;34.48;37.73
10466;BME280;5280;42.600;23.556;2023-07-13T10:03:01;93685.78;;;34.57;38.49
10466;BME280;5280;42.600;23.556;2023-07-13T10:05:37;93686.16;;;34.66;38.63
10466;BME280;5280;42.600;23.556;2023-07-13T10:08:05;93678.56;;;34.73;36.00
10466;BME280;5280;42.600;23.556;2023-07-13T10:10:33;93613.69;;;34.35;36.80
10466;BME280;5280;42.600;23.556;2023-07-13T10:13:02;93670.88;;;34.75;36.16
10466;BME280;5280;42.600;23.556;2023-07-13T10:15:31;93678.56;;;34.73;35.46
10466;BME280;5280;42.600;23.556;2023-07-13T10:17:59;93592.47;;;34.26;37.38
10466;BME280;5280;42.600;23.556;2023-07-13T10:20:26;93663.25;;;34.82;37.34
10466;BME280;5280;42.600;23.556;2023-07-13T10:22:58;93661.28;;;34.78;38.17
10466;BME280;5280;42.600;23.556;2023-07-13T10:25:31;93673.72;;;34.85;38.42
10466;BME280;5280;42.600;23.556;2023-07-13T10:28:05;93628.47;;;34.61;37.79
10466;BME280;5280;42.600;23.556;2023-07-13T10:30:41;93657.59;;;34.99;35.44
10466;BME280;5280;42.600;23.556;2023-07-13T10:33:10;93644.59;;;34.84;36.57
10466;BME280;5280;42.600;23.556;2023-07-13T10:35:40;93665.84;;;34.99;35.72
10466;BME280;5280;42.600;23.556;2023-07-13T10:38:11;93611.97;;;34.61;36.62
10466;BME280;5280;42.600;23.556;2023-07-13T10:40:45;93628.34;;;34.83;36.53
10466;BME280;5280;42.600;23.556;2023-07-13T10:43:16;93634.69;;;34.83;36.92
10466;BME280;5280;42.600;23.556;2023-07-13T10:45:47;93630.28;;;34.82;36.75
10466;BME280;5280;42.600;23.556;2023-07-13T10:48:16;93663.94;;;34.99;35.77
10466;BME280;5280;42.600;23.556;2023-07-13T10:50:45;93652.34;;;34.97;35.48
10466;BME280;5280;42.600;23.556;2023-07-13T10:53:22;93651.81;;;34.95;36.43
10466;BME280;5280;42.600;23.556;2023-07-13T10:56:03;93646.06;;;35.02;34.85
10466;BME280;5280;42.600;23.556;2023-07-13T10:58:35;93559.66;;;34.41;37.71
10466;BME280;5280;42.600;23.556;2023-07-13T11:01:08;93633.38;;;34.91;35.53
10466;BME280;5280;42.600;23.556;2023-07-13T11:03:36;93638.47;;;34.77;36.97
10466;BME280;5280;42.600;23.556;2023-07-13T11:06:08;93638.47;;;34.77;34.10
10466;BME280;5280;42.600;23.556;2023-07-13T11:08:37;93618.56;;;34.60;35.89
10466;BME280;5280;42.600;23.556;2023-07-13T11:11:32;93624.09;;;34.65;34.30
10466;BME280;5280;42.600;23.556;2023-07-13T11:14:03;93616.91;;;34.59;34.82
10466;BME280;5280;42.600;23.556;2023-07-13T11:16:43;93621.31;;;34.60;35.54
10466;BME280;5280;42.600;23.556;2023-07-13T11:19:39;93612.44;;;34.53;34.83
10466;BME280;5280;42.600;23.556;2023-07-13T11:22:16;93611.81;;;34.41;35.04
10466;BME280;5280;42.600;23.556;2023-07-13T11:24:59;93607.44;;;34.45;35.16
10466;BME280;5280;42.600;23.556;2023-07-13T11:27:39;93592.03;;;34.39;35.50
10466;BME280;5280;42.600;23.556;2023-07-13T11:30:36;93577.03;;;34.20;37.10
10466;BME280;5280;42.600;23.556;2023-07-13T11:33:15;93610.19;;;34.45;37.16
10466;BME280;5280;42.600;23.556;2023-07-13T11:35:48;93601.13;;;34.44;36.62
10466;BME280;5280;42.600;23.556;2023-07-13T11:38:17;93589.34;;;34.49;36.21
10466;BME280;5280;42.600;23.556;2023-07-13T11:40:47;93581.34;;;34.42;34.42
10466;BME280;5280;42.600;23.556;2023-07-13T11:43:15;93596.50;;;34.50;36.27
10466;BME280;5280;42.600;23.556;2023-07-13T11:45:45;93524.41;;;33.96;34.52
10466;BME280;5280;42.600;23.556;2023-07-13T11:48:20;93541.28;;;34.14;34.78
10466;BME280;5280;42.600;23.556;2023-07-13T11:50:54;93594.03;;;34.48;35.50
10466;BME280;5280;42.600;23.556;2023-07-13T11:53:24;93572.50;;;34.35;33.31
10466;BME280;5280;42.600;23.556;2023-07-13T11:55:53;93505.41;;;33.89;35.10
10466;BME280;5280;42.600;23.556;2023-07-13T11:58:23;93578.88;;;34.41;32.91
10466;BME280;5280;42.600;23.556;2023-07-13T12:00:53;93587.09;;;34.41;33.46
10466;BME280;5280;42.600;23.556;2023-07-13T12:03:23;93543.16;;;34.09;34.18
10466;BME280;5280;42.600;23.556;2023-07-13T12:06:00;93579.38;;;34.38;33.25
10466;BME280;5280;42.600;23.556;2023-07-13T12:08:28;93584.88;;;34.38;33.88
10466;BME280;5280;42.600;23.556;2023-07-13T12:11:05;93566.84;;;34.47;33.83
10466;BME280;5280;42.600;23.556;2023-07-13T12:13:38;93584.41;;;34.46;31.84
10466;BME280;5280;42.600;23.556;2023-07-13T12:16:16;93565.47;;;34.49;32.99
10466;BME280;5280;42.600;23.556;2023-07-13T12:18:44;93544.19;;;34.30;32.62
10466;BME280;5280;42.600;23.556;2023-07-13T12:21:17;93484.28;;;33.90;32.40
10466;BME280;5280;42.600;23.556;2023-07-13T12:23:47;93546.38;;;34.28;32.92
10466;BME280;5280;42.600;23.556;2023-07-13T12:26:17;93559.34;;;34.37;33.13
10466;BME280;5280;42.600;23.556;2023-07-13T12:28:47;93539.31;;;34.37;34.95
10466;BME280;5280;42.600;23.556;2023-07-13T12:31:36;93516.75;;;34.30;34.54
10466;BME280;5280;42.600;23.556;2023-07-13T12:34:07;93535.56;;;34.53;34.83
10466;BME280;5280;42.600;23.556;2023-07-13T12:36:38;93539.97;;;34.54;36.40
10466;BME280;5280;42.600;23.556;2023-07-13T12:39:16;93536.09;;;34.50;33.83
10466;BME280;5280;42.600;23.556;2023-07-13T12:41:44;93530.88;;;34.48;34.38
10466;BME280;5280;42.600;23.556;2023-07-13T12:44:12;93531.97;;;34.47;33.76
10466;BME280;5280;42.600;23.556;2023-07-13T12:47:03;93514.75;;;34.57;35.20
10466;BME280;5280;42.600;23.556;2023-07-13T12:49:32;93507.84;;;34.54;33.46
10466;BME280;5280;42.600;23.556;2023-07-13T12:52:02;93513.66;;;34.63;32.86
10466;BME280;5280;42.600;23.556;2023-07-13T12:54:30;93504.84;;;34.56;33.58
10466;BME280;5280;42.600;23.556;2023-07-13T12:56:59;93489.44;;;34.50;34.96
10466;BME280;5280;42.600;23.556;2023-07-13T12:59:31;93471.53;;;34.42;34.33
10466;BME280;5280;42.600;23.556;2023-07-13T13:02:28;93512.09;;;34.72;35.21
10466;BME280;5280;42.600;23.556;2023-07-13T13:04:56;93496.47;;;34.78;34.43
10466;BME280;5280;42.600;23.556;2023-07-13T13:07:24;93500.34;;;34.77;33.45
10466;BME280;5280;42.600;23.556;2023-07-13T13:09:52;93484.28;;;34.64;33.65
10466;BME280;5280;42.600;23.556;2023-07-13T13:12:20;93424.50;;;34.24;34.99
10466;BME280;5280;42.600;23.556;2023-07-13T13:14:47;93453.75;;;34.50;35.51
10466;BME280;5280;42.600;23.556;2023-07-13T13:17:21;93482.34;;;34.59;34.45